Detailed Flight Report of Nuri Burak ERKAL ;
Number CXD079 
Departure Aerodrome LMML 
Arrival Aerodrome FPST

Map generated by the Great Circle Mapper - copyright © Karl L. Swartz.

Pilot In Command CXD079 : Nuri Burak Erkal
Aircraft B773 / TC-NZL
Date Of Flight 2020-06-16
Departure Time 12:45 UTC
Arrival Time 17:47 UTC
Block Time 05:02
Distance 2,318 Nm.
Used Fuel 32,767 Lbs.
   
Detailed Flight Log [2020/06/16 12:15:00]
Flight IATA:C001
Pilot Number:079
Company ICAO:CXD
Aircraft Type:B773
Aircraft Registration:TC-NZL
Departing Airport: LMML
Destination Airport: FPST
Alternate Airport:FOOL
Online: VATSIM
Route:SUDIK T299 VARIG T297 NAWRS M740 SEB A403 TUMMO/FL360 UA403 FL UG857 DLA UB737 STM
Flight Level:FL360
No pause
12:15 Zero fuel Weight: 503313 Lbs, Fuel Weight: 101404 Lbs
12:15 VATSIM:LMML 151845Z AUTO 31019KT CAVOK 21/16 Q1015
12:15 VATSIM:FPST 151400Z 33008KT 9999 FEW022 29/24 Q1013 NOSIG
12:19 Parking Brakes off
12:32 VR= 186 Knots
12:32 V2= 190 Knots
12:32 Take-off
12:32 Take off Weight: 603065 Lbs
12:32 Wind: 310º @ 020 Knots Heading: 314º
12:32 POS N35º 50´ 55´´ E014º 29´ 18´´
12:32 N11 92 N12 92
12:32 Flaps:5º at 192 Knots
12:32 Gear Up: 186 Knots
12:33 Flaps:1º at 216 Knots
12:34 Flaps:Up at 236 Knots
12:38 Gear Down: 329 Knots
12:38 Gear U
p: 329 Knots
12:47 Wind:279º@043 Knots Heading: 196º Ground Speed: 488 Knots Altitude 31453 ft
13:02 Wind:271º@061 Knots Heading: 197º Ground Speed: 502 Knots Altitude 34143 ft
13:17 Wind:269º@057 Knots Heading: 178º Ground Speed: 523 Knots Altitude 34150 ft
13:32 Wind:270º@044 Knots Heading: 177º Ground Speed: 525 Knots Altitude 34140 ft
13:38 TOC
13:38 Fuel Weight: 74611 Lb
13:47 Wind:261º@025 Knots Heading: 180º Ground Speed: 489 Knots Altitude 36135 ft
14:02 Wind:242º@013 Knots Heading: 179º Ground Speed: 490 Knots Altitude 36148 ft
14:17 Wind:196º@006 Knots Heading: 178º Ground Speed: 490 Knots Altitude 36053 ft
14:32 Wind:120º@011 Knots Heading: 176º Ground Speed: 494 Knots Altitude 36000 ft
14:47 Wind:110º@015 Knots Heading: 176º Ground Speed: 498 Knots Altitude 35908 ft
15:02 Wind:096º@017 Knots Heading: 176º Ground Speed: 505 Knots Altitude 35846 ft
15:17
Wind:088º@025 Knots Heading: 175º Ground Speed: 509 Knots Altitude 35853 ft
15:32 Wind:082º@028 Knots Heading: 211º Ground Speed: 528 Knots Altitude 35872 ft
15:47 Wind:084º@032 Knots Heading: 210º Ground Speed: 531 Knots Altitude 35938 ft
16:02 Wind:092º@037 Knots Heading: 209º Ground Speed: 530 Knots Altitude 35951 ft
16:17 Wind:097º@039 Knots Heading: 208º Ground Speed: 528 Knots Altitude 36020 ft
16:32 Wind:094º@035 Knots Heading: 207º Ground Speed: 528 Knots Altitude 35997 ft
16:47 Wind:089º@030 Knots Heading: 217º Ground Speed: 532 Knots Altitude 36007 ft
16:49 TOD
16:49 Fuel Weight: 22640 Lb
17:02 Wind:064º@019 Knots Heading: 213º Ground Speed: 408 Knots Altitude 13297 ft
17:12 Gear Down: 244 Knots
17:13 Flaps:1º at 223 Knots
17:13 Flaps:5º at 188 Knots
17:13 Flaps:15º at 179 Knots
17:13 Flaps:30º at 176 Knots
17:14 Flaps:35º at 165 Knots
17:14 Flaps:Fu
ll at 164 Knots
17:16 TouchDown:Rate -103 ft/min Speed: 139 Knots
17:16 VATSIM:FPST 151400Z 33008KT 9999 FEW022 29/24 Q1013 NOSIG
17:16 Land
17:16 Wind:330º@008 Knots
17:16 Heading: 282º
17:16 Flight Duration: 04:44
17:16 Landing Weight: 522202 Lbs
17:16 POS N00º 22´ 46´´ E006º 42´ 22´´
17:21 Parking brakes on
17:21 Block to Block Duration: 05:02
17:21 Final Fuel: 18558 Lbls
17:21 Spent Fuel: 82846 Lbls
17:21 Flight Length: 2318 NM
17:21 TOD Land Length: 153 NM

Text Link of Flight Log http://www.candanair.net/acars/logs/CXD07920200616121500.txt
   

[ Back ]